createdAt,value
2023-04-18T08:24:28.212Z,100.00
2023-04-18T08:26:31.018Z,100.00
2023-04-18T08:28:33.391Z,100.00
2023-04-18T08:30:35.977Z,100.00
2023-04-18T08:32:39.097Z,100.00
2023-04-18T08:34:41.996Z,100.00
2023-04-18T08:36:44.321Z,100.00
2023-04-18T08:38:47.672Z,100.00
2023-04-18T08:40:50.043Z,100.00
2023-04-18T08:42:53.340Z,100.00
2023-04-18T08:44:56.118Z,100.00
2023-04-18T08:47:00.253Z,100.00
2023-04-18T08:49:04.733Z,100.00
2023-04-18T08:51:07.383Z,100.00
2023-04-18T08:53:10.665Z,100.00
2023-04-18T08:55:13.062Z,100.00
2023-04-18T08:57:16.953Z,100.00
2023-04-18T08:59:20.564Z,100.00
2023-04-18T09:01:23.124Z,100.00
2023-04-18T09:03:40.638Z,100.00
2023-04-18T09:05:43.154Z,90.02
2023-04-18T09:07:46.944Z,88.42
2023-04-18T09:09:51.709Z,83.39
2023-04-18T09:12:11.232Z,79.01
2023-04-18T09:14:36.740Z,81.48
2023-04-18T09:16:47.211Z,82.15
2023-04-18T09:19:08.744Z,83.63
2023-04-18T09:21:20.982Z,81.76
2023-04-18T09:23:24.566Z,81.65
2023-04-18T09:25:34.924Z,82.29
2023-04-18T09:27:37.529Z,81.81
2023-04-18T09:29:46.727Z,81.85
2023-04-18T09:32:02.086Z,80.24
2023-04-18T09:34:05.272Z,79.12
2023-04-18T09:36:21.683Z,82.18
2023-04-18T09:38:41.099Z,84.63
2023-04-18T09:40:43.576Z,88.82
2023-04-18T09:42:48.105Z,88.78
2023-04-18T09:44:59.638Z,88.66
2023-04-18T09:47:02.387Z,91.02
2023-04-18T09:49:05.338Z,91.30
2023-04-18T09:51:10.865Z,92.91
2023-04-18T09:53:20.631Z,95.82
2023-04-18T09:55:23.830Z,95.27
2023-04-18T09:57:28.869Z,93.33
2023-04-18T09:59:47.620Z,94.30
2023-04-18T10:01:51.446Z,93.08
2023-04-18T10:03:56.360Z,94.67
2023-04-18T10:05:58.852Z,92.42
2023-04-18T10:08:01.326Z,90.55
2023-04-18T10:10:04.344Z,89.68
2023-04-18T10:12:06.962Z,89.17
2023-04-18T10:14:12.968Z,87.26
2023-04-18T10:16:17.134Z,86.11
2023-04-18T10:18:23.354Z,82.91
2023-04-18T10:20:27.678Z,83.09
2023-04-18T10:22:30.852Z,84.03
2023-04-18T10:24:49.809Z,83.98
2023-04-18T10:26:52.328Z,82.85
2023-04-18T10:28:59.090Z,82.37
2023-04-18T10:31:05.702Z,75.50
2023-04-18T10:35:29.805Z,67.63
2023-04-18T10:37:33.462Z,65.96
2023-04-18T10:39:58.392Z,68.86
2023-04-18T10:42:01.308Z,67.53
2023-04-18T10:44:16.211Z,64.58
2023-04-18T10:46:30.971Z,64.62
2023-04-18T10:51:12.245Z,62.82
2023-04-18T10:53:14.620Z,63.96
2023-04-18T10:55:26.288Z,68.22
2023-04-18T10:57:49.240Z,63.94
2023-04-18T10:59:52.531Z,61.67
2023-04-18T11:02:10.523Z,60.90
2023-04-18T11:04:14.258Z,59.51
2023-04-18T11:06:16.858Z,59.09
2023-04-18T11:08:24.302Z,58.42
2023-04-18T11:10:27.684Z,57.48
2023-04-18T11:12:35.543Z,55.00
2023-04-18T11:14:43.181Z,52.12
2023-04-18T11:16:45.599Z,49.42
2023-04-18T11:18:47.921Z,51.87
2023-04-18T11:20:51.650Z,55.37
2023-04-18T11:22:56.994Z,55.07
2023-04-18T11:25:00.980Z,51.60
2023-04-18T11:27:04.303Z,48.05
2023-04-18T11:29:06.741Z,49.03
2023-04-18T11:31:09.138Z,53.65
2023-04-18T11:33:13.048Z,53.54
2023-04-18T11:35:16.481Z,51.52
2023-04-18T11:37:19.156Z,53.24
2023-04-18T11:39:22.702Z,51.80
2023-04-18T11:41:25.065Z,53.67
2023-04-18T11:43:27.411Z,52.76
2023-04-18T11:45:30.226Z,53.51
2023-04-18T11:47:34.436Z,55.57
2023-04-18T11:49:36.821Z,58.08
2023-04-18T11:51:39.634Z,58.68
2023-04-18T11:53:41.905Z,57.47
2023-04-18T11:55:54.719Z,57.77
2023-04-18T11:57:58.839Z,59.67
2023-04-18T12:00:01.654Z,60.86
2023-04-18T12:02:15.573Z,61.17
2023-04-18T12:04:20.052Z,62.73
2023-04-18T12:06:22.975Z,64.98
2023-04-18T12:08:26.887Z,66.28
2023-04-18T12:10:30.174Z,66.64
2023-04-18T12:12:32.640Z,62.10
2023-04-18T12:14:36.178Z,58.39
2023-04-18T12:16:38.998Z,57.55
2023-04-18T12:18:41.960Z,56.00
2023-04-18T12:20:54.262Z,54.03
2023-04-18T12:22:57.796Z,51.76
2023-04-18T12:25:30.031Z,50.86
2023-04-18T12:27:52.315Z,49.40
2023-04-18T12:29:54.968Z,48.01
2023-04-18T12:31:57.363Z,48.50
2023-04-18T12:34:00.582Z,47.47
2023-04-18T12:36:05.426Z,46.54
2023-04-18T12:38:07.807Z,47.39
2023-04-18T12:40:11.066Z,49.15
2023-04-18T12:42:13.815Z,50.08
2023-04-18T12:44:16.174Z,50.04
2023-04-18T12:46:18.719Z,51.61
2023-04-18T12:48:21.360Z,51.63
2023-04-18T12:50:25.636Z,53.42
2023-04-18T12:52:28.221Z,53.46
2023-04-18T12:54:30.904Z,47.84
2023-04-18T12:56:33.212Z,46.69
2023-04-18T12:58:36.007Z,45.94
2023-04-18T13:00:38.642Z,45.37
2023-04-18T13:02:44.134Z,44.50
2023-04-18T13:04:46.646Z,40.29
2023-04-18T13:06:49.333Z,39.48
2023-04-18T13:08:51.813Z,39.18
2023-04-18T13:10:54.201Z,36.88
2023-04-18T13:12:56.938Z,34.28
2023-04-18T13:14:59.299Z,32.40
2023-04-18T13:17:01.758Z,30.24
2023-04-18T13:19:04.420Z,29.26
2023-04-18T13:21:06.897Z,29.06
2023-04-18T13:23:09.205Z,29.16
2023-04-18T13:25:12.066Z,30.38
2023-04-18T13:27:15.121Z,29.16
2023-04-18T13:29:17.473Z,29.34
2023-04-18T13:31:20.132Z,28.15
2023-04-18T13:33:22.491Z,27.70
2023-04-18T13:35:24.894Z,27.20
2023-04-18T13:37:27.457Z,26.86
2023-04-18T13:39:32.255Z,27.00
2023-04-18T13:41:35.443Z,25.90
2023-04-18T13:43:38.046Z,27.38
2023-04-18T13:45:40.362Z,28.71
2023-04-18T13:47:42.806Z,29.37
2023-04-18T13:49:45.793Z,31.22
2023-04-18T13:51:48.150Z,31.49
2023-04-18T13:53:51.676Z,30.82
2023-04-18T13:55:54.231Z,30.76
2023-04-18T13:57:56.869Z,29.74
2023-04-18T13:59:59.149Z,29.18
2023-04-18T14:02:01.874Z,28.59
2023-04-18T14:04:04.950Z,28.53
2023-04-18T14:06:07.514Z,28.44
2023-04-18T14:08:09.948Z,28.19
2023-04-18T14:10:12.650Z,27.03
2023-04-18T14:12:15.125Z,28.05
2023-04-18T14:14:17.504Z,27.61
2023-04-18T14:16:20.201Z,27.19
2023-04-18T14:18:23.643Z,28.67
2023-04-18T14:20:26.622Z,28.17
2023-04-18T14:22:29.365Z,27.87
2023-04-18T14:24:31.681Z,27.51
2023-04-18T14:26:33.911Z,26.85
2023-04-18T14:28:36.869Z,26.25
2023-04-18T14:30:39.952Z,26.26
2023-04-18T14:32:42.322Z,27.22
2023-04-18T14:34:45.153Z,26.86
2023-04-18T14:36:47.436Z,27.29
2023-04-18T14:38:50.261Z,27.46
2023-04-18T14:40:52.789Z,27.25
2023-04-18T14:42:55.185Z,27.10
2023-04-18T14:44:57.420Z,28.29
2023-04-18T14:47:00.202Z,27.69
2023-04-18T14:49:02.475Z,26.77
2023-04-18T14:51:04.771Z,26.57
2023-04-18T14:53:07.910Z,27.08
2023-04-18T14:55:10.937Z,27.50
2023-04-18T14:57:13.312Z,28.78
2023-04-18T14:59:17.113Z,30.01
2023-04-18T15:01:19.550Z,30.43
2023-04-18T15:03:22.043Z,31.60
2023-04-18T15:05:24.814Z,33.25
2023-04-18T15:07:27.097Z,33.61
2023-04-18T15:09:29.669Z,33.31
2023-04-18T15:11:32.297Z,33.62
2023-04-18T15:13:34.980Z,34.54
2023-04-18T15:15:38.007Z,33.95
2023-04-18T15:17:40.871Z,33.22
2023-04-18T15:19:43.256Z,33.51
2023-04-18T15:21:45.571Z,33.07
2023-04-18T15:23:48.173Z,35.76
2023-04-18T15:25:50.535Z,34.90
2023-04-18T15:27:53.285Z,35.92
2023-04-18T15:29:56.608Z,36.15
2023-04-18T15:31:59.256Z,35.70
2023-04-18T15:34:01.639Z,36.17
2023-04-18T15:36:04.501Z,37.78
2023-04-18T15:38:06.836Z,39.05
2023-04-18T15:40:11.321Z,38.65
2023-04-18T15:42:13.930Z,38.54
2023-04-18T15:44:16.276Z,38.95
2023-04-18T15:46:18.762Z,39.95
2023-04-18T15:48:21.493Z,39.19
2023-04-18T15:50:24.279Z,40.29
2023-04-18T15:52:26.788Z,39.92
2023-04-18T15:54:29.450Z,40.54
2023-04-18T15:56:33.591Z,39.50
2023-04-18T15:58:36.309Z,39.75
2023-04-18T16:00:39.932Z,39.34
2023-04-18T16:02:44.075Z,39.95
2023-04-18T16:04:46.637Z,39.91
2023-04-18T16:06:49.091Z,39.56
2023-04-18T16:08:51.725Z,39.64
2023-04-18T16:10:54.067Z,39.85
2023-04-18T16:12:56.491Z,41.45
2023-04-18T16:14:59.181Z,41.27
2023-04-18T16:17:01.769Z,40.72
2023-04-18T16:19:05.483Z,40.72
2023-04-18T16:21:08.132Z,41.54
2023-04-18T16:23:10.487Z,41.94
2023-04-18T16:25:14.516Z,40.74
2023-04-18T16:27:17.203Z,41.03
2023-04-18T16:29:19.525Z,41.79
2023-04-18T16:31:22.426Z,41.18
2023-04-18T16:33:26.171Z,41.18
2023-04-18T16:35:29.168Z,42.90
2023-04-18T16:37:31.550Z,42.03
2023-04-18T16:39:34.193Z,41.56
2023-04-18T16:41:37.702Z,42.18
2023-04-18T16:43:40.372Z,42.23
2023-04-18T16:45:43.238Z,42.81
2023-04-18T16:47:45.760Z,42.36
2023-04-18T16:49:48.040Z,43.32
2023-04-18T16:51:51.651Z,41.90
2023-04-18T16:53:54.495Z,42.16
2023-04-18T16:55:56.793Z,41.66
2023-04-18T16:57:59.716Z,42.42
2023-04-18T17:00:03.096Z,43.23
2023-04-18T17:02:05.775Z,44.19
2023-04-18T17:04:08.998Z,42.91
2023-04-18T17:06:11.468Z,42.40
2023-04-18T17:08:14.062Z,43.53
2023-04-18T17:10:18.796Z,42.92
2023-04-18T17:12:21.685Z,42.93
2023-04-18T17:14:24.298Z,43.95
2023-04-18T17:16:27.295Z,43.29
2023-04-18T17:18:29.790Z,45.64
2023-04-18T17:20:32.919Z,44.07
2023-04-18T17:22:38.944Z,45.52
2023-04-18T17:24:41.883Z,44.33
2023-04-18T17:26:46.435Z,43.68
2023-04-18T17:28:49.642Z,45.45
2023-04-18T17:30:52.637Z,44.98
2023-04-18T17:32:55.432Z,46.41
2023-04-18T17:35:04.310Z,46.36
2023-04-18T17:37:06.980Z,46.23
2023-04-18T17:39:10.447Z,44.43
2023-04-18T17:41:13.685Z,45.35
2023-04-18T17:43:16.604Z,45.41
2023-04-18T17:45:21.012Z,48.75
2023-04-18T17:47:23.673Z,46.63
2023-04-18T17:49:31.057Z,47.05
2023-04-18T17:51:34.236Z,46.80
2023-04-18T17:53:37.607Z,46.84
2023-04-18T17:55:41.990Z,47.14
2023-04-18T17:57:45.280Z,46.26
2023-04-18T17:59:47.996Z,46.09
2023-04-18T18:01:51.960Z,45.37
2023-04-18T18:03:56.307Z,47.70
2023-04-18T18:05:59.101Z,46.51
2023-04-18T18:08:02.249Z,48.98
2023-04-18T18:10:07.105Z,48.97
2023-04-18T18:12:12.710Z,48.29
2023-04-18T18:14:17.286Z,48.37
2023-04-18T18:16:21.734Z,49.00
2023-04-18T18:18:25.747Z,49.32
2023-04-18T18:20:31.880Z,49.11
2023-04-18T18:22:36.144Z,49.89
2023-04-18T18:24:39.337Z,51.39
2023-04-18T18:26:42.470Z,51.00
2023-04-18T18:28:48.073Z,49.56
2023-04-18T18:30:51.299Z,49.69
2023-04-18T18:32:54.991Z,48.77
2023-04-18T18:34:58.230Z,49.85
2023-04-18T18:37:01.936Z,50.46
2023-04-18T18:39:06.295Z,49.09
2023-04-18T18:41:10.220Z,49.29
2023-04-18T18:43:13.620Z,49.23
2023-04-18T18:45:20.458Z,52.43
2023-04-18T18:47:24.987Z,49.39
2023-04-18T18:49:28.167Z,49.60
2023-04-18T18:51:31.711Z,50.44
2023-04-18T18:53:34.746Z,50.51
2023-04-18T18:55:38.204Z,51.47
2023-04-18T18:57:41.257Z,51.02
2023-04-18T18:59:44.516Z,50.76
2023-04-18T19:01:48.234Z,52.27
2023-04-18T19:03:51.874Z,51.78
2023-04-18T19:05:57.216Z,54.59
2023-04-18T19:08:00.622Z,52.23
2023-04-18T19:10:05.152Z,51.93
2023-04-18T19:12:08.848Z,51.83
2023-04-18T19:14:19.389Z,51.78
2023-04-18T19:16:21.990Z,51.93
2023-04-18T19:18:24.609Z,52.63
2023-04-18T19:20:29.237Z,51.71
2023-04-18T19:22:32.513Z,50.95
2023-04-18T19:24:37.744Z,53.17
2023-04-18T19:26:42.425Z,53.72
2023-04-18T19:28:45.722Z,51.83
2023-04-18T19:30:50.977Z,54.33
2023-04-18T19:32:54.239Z,52.95
2023-04-18T19:34:57.933Z,52.27
2023-04-18T19:37:02.360Z,54.26
2023-04-18T19:39:05.980Z,54.78
2023-04-18T19:41:10.969Z,56.77
2023-04-18T19:43:14.255Z,58.12
2023-04-18T19:45:21.148Z,57.45
2023-04-18T19:47:24.735Z,54.33
2023-04-18T19:49:28.307Z,56.63
2023-04-18T19:51:32.774Z,55.67
2023-04-18T19:53:36.576Z,56.57
2023-04-18T19:55:40.217Z,57.97
2023-04-18T19:57:43.988Z,56.33
2023-04-18T19:59:48.663Z,54.24
2023-04-18T20:01:52.508Z,53.04
2023-04-18T20:03:59.795Z,55.52
2023-04-18T20:06:25.863Z,55.27
2023-04-18T20:08:30.999Z,54.68
2023-04-18T20:10:35.826Z,53.49
2023-04-18T20:12:39.111Z,56.39
2023-04-18T20:14:41.953Z,55.23
2023-04-18T20:16:49.686Z,56.29
2023-04-18T20:18:54.854Z,54.47
2023-04-18T20:20:58.343Z,57.22
2023-04-18T20:23:04.087Z,55.45
2023-04-18T20:25:07.442Z,55.70
2023-04-18T20:27:11.058Z,54.08
2023-04-18T20:29:14.406Z,53.56
2023-04-18T20:31:18.945Z,55.45
2023-04-18T20:33:22.777Z,53.91
2023-04-18T20:35:28.533Z,56.75
2023-04-18T20:37:37.437Z,54.71
2023-04-18T20:39:42.180Z,54.16
2023-04-18T20:41:51.572Z,54.81
2023-04-18T20:43:54.503Z,55.05
2023-04-18T20:45:58.082Z,54.62
2023-04-18T20:48:02.003Z,55.34
2023-04-18T20:50:07.580Z,56.85
2023-04-18T20:52:11.958Z,55.99
2023-04-18T20:54:15.236Z,56.73
2023-04-18T20:56:17.916Z,57.53
2023-04-18T20:58:20.809Z,57.25
2023-04-18T21:00:23.504Z,56.37
2023-04-18T21:02:26.892Z,56.41
2023-04-18T21:04:29.694Z,55.44
2023-04-18T21:06:32.931Z,60.61
2023-04-18T21:08:35.400Z,60.61
2023-04-18T21:10:37.870Z,59.43
2023-04-18T21:12:40.571Z,57.40
2023-04-18T21:14:42.850Z,57.82
2023-04-18T21:16:45.202Z,57.28
2023-04-18T21:18:47.865Z,57.63
2023-04-18T21:20:50.532Z,56.08
2023-04-18T21:22:52.912Z,57.87
2023-04-18T21:24:55.621Z,58.69
2023-04-18T21:26:57.904Z,58.14
2023-04-18T21:29:06.743Z,58.81
2023-04-18T21:31:09.397Z,59.39
2023-04-18T21:33:11.924Z,60.82
2023-04-18T21:35:15.023Z,61.45
2023-04-18T21:37:18.735Z,65.04
2023-04-18T21:39:21.176Z,63.28
2023-04-18T21:41:24.100Z,62.51
2023-04-18T21:43:26.784Z,63.48
2023-04-18T21:45:29.321Z,64.18
2023-04-18T21:47:32.438Z,64.47
2023-04-18T21:49:35.074Z,66.42
2023-04-18T21:51:37.385Z,65.36
2023-04-18T21:53:41.016Z,66.97
2023-04-18T21:55:43.645Z,67.35
2023-04-18T21:57:45.997Z,67.57
2023-04-18T21:59:48.264Z,70.26
2023-04-18T22:01:50.961Z,68.92
2023-04-18T22:03:53.793Z,67.51
2023-04-18T22:05:56.704Z,70.58
2023-04-18T22:07:59.049Z,67.40
2023-04-18T22:10:03.842Z,65.44
2023-04-18T22:12:06.191Z,65.82
2023-04-18T22:14:09.983Z,66.84
2023-04-18T22:16:12.656Z,67.80
2023-04-18T22:18:15.193Z,70.44
2023-04-18T22:20:17.552Z,68.98
2023-04-18T22:22:20.242Z,69.87
2023-04-18T22:24:40.672Z,69.43
2023-04-18T22:26:42.946Z,68.47
2023-04-18T22:28:45.518Z,68.96
2023-04-18T22:30:47.795Z,70.24
2023-04-18T22:32:50.144Z,72.01
2023-04-18T22:34:52.702Z,72.90
2023-04-18T22:36:55.201Z,73.41
2023-04-18T22:38:57.603Z,73.27
2023-04-18T22:41:00.287Z,73.40
2023-04-18T22:43:02.614Z,73.94
2023-04-18T22:45:06.461Z,74.49
2023-04-18T22:47:09.046Z,74.22
2023-04-18T22:49:11.299Z,74.41
2023-04-18T22:51:18.258Z,75.02
2023-04-18T22:53:21.098Z,73.85
2023-04-18T22:55:23.507Z,74.24
2023-04-18T22:57:25.952Z,74.12
2023-04-18T22:59:28.541Z,73.50
2023-04-18T23:01:30.902Z,72.99
2023-04-18T23:03:34.561Z,72.47
2023-04-18T23:05:37.406Z,72.92
2023-04-18T23:07:39.677Z,73.19
2023-04-18T23:09:41.968Z,72.70
2023-04-18T23:11:44.567Z,73.40
2023-04-18T23:13:46.936Z,72.99
2023-04-18T23:15:49.310Z,72.68
2023-04-18T23:17:53.163Z,72.25
2023-04-18T23:19:55.478Z,71.93
2023-04-18T23:21:57.795Z,72.14
2023-04-18T23:24:00.522Z,72.50
2023-04-18T23:26:02.773Z,71.90
2023-04-18T23:28:05.246Z,71.52
2023-04-18T23:30:08.763Z,70.81
2023-04-18T23:32:11.145Z,71.00
2023-04-18T23:34:13.781Z,71.24
